Time;durP1;ratioP1;P1;durP2;ratioP2;P2;SDS_P1;SDS_P2;PMS_P1;PMS_P2;Temp;Humidity;BMP_temperature;BMP_pressure;BME280_temperature;BME280_humidity;BME280_pressure;Samples;Min_cycle;Max_cycle;Signal;HPM_P1;HPM_P2
2022/03/17 00:02:10;;;;;;;15.15;11.12;;;;;;;;;;143744;587;45913;-65
2022/03/17 00:04:37;;;;;;;18.10;12.68;;;;;;;;;;143745;624;45022;-65
2022/03/17 00:07:05;;;;;;;15.50;11.63;;;;;;;;;;143742;662;46019;-65
2022/03/17 00:09:32;;;;;;;16.62;12.32;;;;;;;;;;143741;590;46022;-67
2022/03/17 00:11:59;;;;;;;17.12;12.07;;;;;;;;;;143736;581;46040;-66
2022/03/17 00:14:26;;;;;;;18.42;12.07;;;;;;;;;;143744;587;45021;-67
2022/03/17 00:16:53;;;;;;;21.23;11.18;;;;;;;;;;143742;570;46022;-65
2022/03/17 00:19:20;;;;;;;17.75;12.02;;;;;;;;;;143741;599;46020;-67
2022/03/17 00:21:47;;;;;;;15.30;11.73;;;;;;;;;;143744;598;45913;-65
2022/03/17 00:24:14;;;;;;;18.10;12.80;;;;;;;;;;143745;603;45020;-65
2022/03/17 00:26:41;;;;;;;17.12;12.43;;;;;;;;;;143743;601;46020;-66
2022/03/17 00:29:08;;;;;;;15.40;12.02;;;;;;;;;;143741;573;46919;-65
2022/03/17 00:31:39;;;;;;;17.77;12.43;;;;;;;;;;143741;579;46012;-65
2022/03/17 00:34:10;;;;;;;14.82;11.65;;;;;;;;;;143745;572;45020;-65
2022/03/17 00:36:37;;;;;;;17.05;12.07;;;;;;;;;;143738;604;46021;-65
2022/03/17 00:39:07;;;;;;;15.02;11.05;;;;;;;;;;143740;572;46920;-66
2022/03/17 00:41:35;;;;;;;16.67;11.93;;;;;;;;;;143743;574;46012;-66
2022/03/17 00:44:02;;;;;;;15.40;11.27;;;;;;;;;;143745;602;45021;-67
2022/03/17 00:46:30;;;;;;;15.48;11.23;;;;;;;;;;143744;594;46020;-67
2022/03/17 00:48:57;;;;;;;18.58;13.88;;;;;;;;;;143741;608;46919;-67
2022/03/17 00:51:24;;;;;;;15.05;10.70;;;;;;;;;;143744;661;45914;-65
2022/03/17 00:53:51;;;;;;;16.95;12.35;;;;;;;;;;143739;574;46020;-65
2022/03/17 00:56:18;;;;;;;17.83;13.05;;;;;;;;;;143743;594;46020;-66
2022/03/17 00:58:48;;;;;;;16.67;13.25;;;;;;;;;;143740;626;46919;-65
2022/03/17 01:01:18;;;;;;;18.62;11.98;;;;;;;;;;143737;577;46012;-65
2022/03/17 01:03:47;;;;;;;17.77;12.75;;;;;;;;;;143743;585;46020;-65
2022/03/17 01:06:14;;;;;;;22.27;13.48;;;;;;;;;;143744;596;46021;-67
2022/03/17 01:08:41;;;;;;;22.65;15.13;;;;;;;;;;143742;565;46012;-66
2022/03/17 01:11:08;;;;;;;19.50;13.68;;;;;;;;;;143743;603;46012;-65
2022/03/17 01:13:35;;;;;;;19.00;12.37;;;;;;;;;;143730;640;46020;-66
2022/03/17 01:16:03;;;;;;;17.48;12.95;;;;;;;;;;143728;569;47020;-67
2022/03/17 01:18:30;;;;;;;19.48;11.25;;;;;;;;;;143725;659;46919;-65
2022/03/17 01:20:57;;;;;;;19.40;12.65;;;;;;;;;;143729;590;46012;-65
2022/03/17 01:23:24;;;;;;;20.23;12.88;;;;;;;;;;143731;580;45027;-66
2022/03/17 01:25:51;;;;;;;17.77;11.68;;;;;;;;;;143726;579;46020;-65
2022/03/17 01:28:18;;;;;;;15.70;11.60;;;;;;;;;;143727;591;46021;-66
2022/03/17 01:30:45;;;;;;;17.20;11.23;;;;;;;;;;143729;606;45913;-65
2022/03/17 01:33:12;;;;;;;20.55;13.30;;;;;;;;;;143730;573;46012;-66
2022/03/17 01:35:39;;;;;;;21.12;13.15;;;;;;;;;;143728;583;46022;-66
2022/03/17 01:38:06;;;;;;;19.05;12.63;;;;;;;;;;143727;581;46920;-65
2022/03/17 01:40:33;;;;;;;22.73;13.93;;;;;;;;;;143729;563;45913;-66
2022/03/17 01:43:00;;;;;;;17.17;11.45;;;;;;;;;;143730;570;46020;-66
2022/03/17 01:45:27;;;;;;;22.95;15.57;;;;;;;;;;143730;661;46020;-66
2022/03/17 01:47:55;;;;;;;18.10;12.10;;;;;;;;;;143725;590;46919;-67
2022/03/17 01:50:22;;;;;;;19.85;13.02;;;;;;;;;;143727;564;46014;-66
2022/03/17 01:52:49;;;;;;;19.30;13.90;;;;;;;;;;143731;626;45020;-66
2022/03/17 01:55:17;;;;;;;20.30;14.38;;;;;;;;;;143728;654;46020;-66
2022/03/17 01:57:44;;;;;;;30.10;16.95;;;;;;;;;;143727;591;46021;-66
2022/03/17 02:00:16;;;;;;;29.50;16.33;;;;;;;;;;143729;569;45912;-66
2022/03/17 02:02:43;;;;;;;30.55;17.83;;;;;;;;;;143729;598;46012;-67
2022/03/17 02:05:10;;;;;;;48.90;27.37;;;;;;;;;;143729;566;46021;-66
2022/03/17 02:07:37;;;;;;;34.38;20.75;;;;;;;;;;143723;642;46020;-66
2022/03/17 02:10:05;;;;;;;38.45;23.17;;;;;;;;;;143729;617;46012;-66
2022/03/17 02:15:17;;;;;;;38.43;20.50;;;;;;;;;;143725;582;47020;-68
2022/03/17 02:17:44;;;;;;;41.78;22.95;;;;;;;;;;143727;576;46020;-67
2022/03/17 02:20:13;;;;;;;41.33;24.05;;;;;;;;;;143729;574;46012;-66
2022/03/17 02:22:48;;;;;;;34.88;22.50;;;;;;;;;;143729;580;46020;-66
2022/03/17 02:25:35;;;;;;;42.47;25.20;;;;;;;;;;143728;579;46020;-66
2022/03/17 02:28:04;;;;;;;35.78;21.48;;;;;;;;;;143729;587;46020;-67
2022/03/17 02:30:37;;;;;;;26.15;16.80;;;;;;;;;;143729;616;46012;-66
2022/03/17 02:33:06;;;;;;;34.20;21.42;;;;;;;;;;143728;604;46020;-66
2022/03/17 02:35:34;;;;;;;41.70;22.10;;;;;;;;;;143732;609;46021;-67
2022/03/17 02:38:03;;;;;;;36.55;22.60;;;;;;;;;;143727;564;46020;-68
2022/03/17 02:40:32;;;;;;;39.05;22.67;;;;;;;;;;143724;580;45911;-66
2022/03/17 02:42:59;;;;;;;31.25;19.00;;;;;;;;;;143728;580;46013;-67
2022/03/17 02:45:26;;;;;;;38.80;22.65;;;;;;;;;;143727;606;46023;-68
2022/03/17 02:47:53;;;;;;;29.52;17.23;;;;;;;;;;143726;565;46917;-66
2022/03/17 02:50:21;;;;;;;25.98;18.73;;;;;;;;;;143726;576;46015;-67
2022/03/17 02:52:48;;;;;;;26.10;15.88;;;;;;;;;;143728;586;46012;-66
2022/03/17 02:55:15;;;;;;;31.12;19.70;;;;;;;;;;143728;608;46020;-67
2022/03/17 02:57:44;;;;;;;26.95;16.95;;;;;;;;;;143725;663;46021;-66
2022/03/17 03:00:13;;;;;;;27.08;15.88;;;;;;;;;;143727;604;46012;-67
2022/03/17 03:02:40;;;;;;;27.50;16.58;;;;;;;;;;143728;570;46020;-66
2022/03/17 03:05:09;;;;;;;29.35;16.87;;;;;;;;;;143725;592;46021;-68
2022/03/17 03:07:37;;;;;;;22.73;15.25;;;;;;;;;;143725;635;46918;-66
2022/03/17 03:10:07;;;;;;;26.55;16.60;;;;;;;;;;143727;578;46012;-66
2022/03/17 03:12:35;;;;;;;26.60;16.83;;;;;;;;;;143728;573;46012;-66
2022/03/17 03:15:02;;;;;;;24.77;16.42;;;;;;;;;;143728;610;46020;-67
2022/03/17 03:17:29;;;;;;;28.95;16.58;;;;;;;;;;143724;568;46917;-68
2022/03/17 03:19:56;;;;;;;24.08;14.38;;;;;;;;;;143726;598;45914;-67
2022/03/17 03:22:23;;;;;;;23.05;14.73;;;;;;;;;;143729;620;45019;-67
2022/03/17 03:24:50;;;;;;;22.80;15.50;;;;;;;;;;143726;628;46022;-67
2022/03/17 03:27:17;;;;;;;30.20;16.40;;;;;;;;;;143725;582;47031;-66
2022/03/17 03:29:44;;;;;;;24.23;16.40;;;;;;;;;;143726;593;46012;-67
2022/03/17 03:32:10;;;;;;;25.05;16.30;;;;;;;;;;143729;586;46012;-67
2022/03/17 03:34:38;;;;;;;25.73;16.00;;;;;;;;;;143726;606;46021;-66
2022/03/17 03:37:23;;;;;;;21.85;13.85;;;;;;;;;;143724;638;46917;-67
2022/03/17 03:39:54;;;;;;;23.00;15.07;;;;;;;;;;143726;599;46894;-66
2022/03/17 03:42:22;;;;;;;30.40;17.02;;;;;;;;;;143730;656;45021;-68
2022/03/17 03:44:51;;;;;;;25.15;16.67;;;;;;;;;;143726;628;46023;-68
2022/03/17 03:47:19;;;;;;;29.70;19.45;;;;;;;;;;143723;618;46917;-66
2022/03/17 03:49:46;;;;;;;28.60;16.15;;;;;;;;;;143727;567;46011;-66
2022/03/17 03:52:14;;;;;;;24.25;15.05;;;;;;;;;;143727;654;46020;-68
2022/03/17 03:54:42;;;;;;;20.90;14.93;;;;;;;;;;143724;601;46020;-67
2022/03/17 03:57:09;;;;;;;23.35;14.65;;;;;;;;;;143724;608;46020;-67
2022/03/17 03:59:36;;;;;;;22.20;14.65;;;;;;;;;;143727;569;45908;-66
2022/03/17 04:02:08;;;;;;;25.75;15.50;;;;;;;;;;143729;582;46020;-66
2022/03/17 04:04:36;;;;;;;21.80;15.05;;;;;;;;;;143726;613;47021;-66
2022/03/17 04:07:05;;;;;;;19.10;13.02;;;;;;;;;;143724;602;46917;-66
2022/03/17 04:09:34;;;;;;;23.55;15.07;;;;;;;;;;143727;578;46010;-68
2022/03/17 04:12:02;;;;;;;25.85;15.55;;;;;;;;;;143729;594;45021;-66
2022/03/17 04:14:30;;;;;;;27.45;16.12;;;;;;;;;;143726;671;46023;-68
2022/03/17 04:16:58;;;;;;;24.12;15.57;;;;;;;;;;143724;647;46917;-66
2022/03/17 04:19:26;;;;;;;24.50;16.98;;;;;;;;;;143725;613;46010;-66
2022/03/17 04:21:53;;;;;;;25.67;16.60;;;;;;;;;;143726;599;46012;-68
2022/03/17 04:24:21;;;;;;;22.92;14.75;;;;;;;;;;143727;584;46020;-67
2022/03/17 04:26:48;;;;;;;21.30;14.35;;;;;;;;;;143725;569;46021;-66
2022/03/17 04:29:15;;;;;;;23.50;15.35;;;;;;;;;;143727;582;46010;-67
2022/03/17 04:31:44;;;;;;;23.12;15.20;;;;;;;;;;143729;626;45020;-68
2022/03/17 04:34:11;;;;;;;20.05;14.25;;;;;;;;;;143728;606;46021;-67
2022/03/17 04:36:39;;;;;;;28.62;18.30;;;;;;;;;;143724;589;46918;-66
2022/03/17 04:39:10;;;;;;;28.15;17.05;;;;;;;;;;143726;565;46020;-68
2022/03/17 04:41:36;;;;;;;24.23;18.10;;;;;;;;;;143728;659;46012;-67
2022/03/17 04:44:04;;;;;;;34.90;17.67;;;;;;;;;;143723;604;47020;-66
2022/03/17 04:46:31;;;;;;;25.85;16.62;;;;;;;;;;143725;588;46020;-67
2022/03/17 04:48:58;;;;;;;24.37;16.58;;;;;;;;;;143727;588;46011;-66
2022/03/17 04:51:25;;;;;;;22.95;15.52;;;;;;;;;;143727;617;46012;-68
2022/03/17 04:53:52;;;;;;;25.85;16.35;;;;;;;;;;143728;598;46020;-68
2022/03/17 04:56:19;;;;;;;28.40;18.70;;;;;;;;;;143725;576;46021;-68
2022/03/17 04:58:46;;;;;;;26.45;17.25;;;;;;;;;;143725;590;46909;-67
2022/03/17 05:01:14;;;;;;;29.52;16.87;;;;;;;;;;143726;595;47020;-67
2022/03/17 05:03:42;;;;;;;28.27;18.67;;;;;;;;;;143728;587;46021;-68
2022/03/17 05:06:15;;;;;;;28.15;18.15;;;;;;;;;;143722;585;46917;-69
2022/03/17 05:08:42;;;;;;;28.38;17.52;;;;;;;;;;143725;581;45909;-68
2022/03/17 05:11:10;;;;;;;33.47;19.42;;;;;;;;;;143728;583;45021;-69
2022/03/17 05:13:39;;;;;;;32.75;20.60;;;;;;;;;;143725;696;47020;-67
2022/03/17 05:16:07;;;;;;;23.30;15.85;;;;;;;;;;143724;577;46917;-68
2022/03/17 05:18:34;;;;;;;26.42;16.20;;;;;;;;;;143727;596;46010;-68
2022/03/17 05:21:02;;;;;;;31.85;20.00;;;;;;;;;;143729;600;45021;-69
2022/03/17 05:23:31;;;;;;;40.17;22.85;;;;;;;;;;143728;598;46020;-68
2022/03/17 05:25:58;;;;;;;28.33;17.77;;;;;;;;;;143725;659;46021;-68
2022/03/17 05:28:24;;;;;;;28.20;18.20;;;;;;;;;;143727;586;45909;-68
2022/03/17 05:30:52;;;;;;;29.63;20.33;;;;;;;;;;143729;601;45020;-67
2022/03/17 05:33:19;;;;;;;30.37;17.87;;;;;;;;;;143716;586;47022;-66
2022/03/17 05:35:46;;;;;;;35.22;22.62;;;;;;;;;;143722;597;46917;-68
2022/03/17 05:38:13;;;;;;;32.53;20.67;;;;;;;;;;143726;584;46909;-68
2022/03/17 05:40:40;;;;;;;32.08;17.80;;;;;;;;;;143728;613;46020;-68
2022/03/17 05:43:09;;;;;;;38.75;22.55;;;;;;;;;;143727;569;46020;-67
2022/03/17 05:45:37;;;;;;;34.03;21.35;;;;;;;;;;143723;646;46917;-66
2022/03/17 05:48:06;;;;;;;34.05;21.20;;;;;;;;;;143726;583;46021;-69
2022/03/17 05:50:37;;;;;;;39.53;24.27;;;;;;;;;;143727;641;46012;-67
2022/03/17 05:53:05;;;;;;;32.13;20.92;;;;;;;;;;143727;616;46020;-68
2022/03/17 05:55:33;;;;;;;39.75;24.12;;;;;;;;;;143725;656;46020;-68
2022/03/17 05:58:00;;;;;;;40.40;24.75;;;;;;;;;;143724;566;46047;-67
2022/03/17 06:00:28;;;;;;;43.60;23.80;;;;;;;;;;143729;603;45026;-67
2022/03/17 06:02:57;;;;;;;27.05;19.45;;;;;;;;;;143727;578;46021;-69
2022/03/17 06:05:25;;;;;;;40.42;24.63;;;;;;;;;;143728;564;45917;-68
2022/03/17 06:07:54;;;;;;;33.97;19.92;;;;;;;;;;143725;564;46909;-69
2022/03/17 06:10:26;;;;;;;37.30;22.13;;;;;;;;;;143727;571;46020;-67
2022/03/17 06:12:54;;;;;;;40.47;22.05;;;;;;;;;;143727;631;46023;-65
2022/03/17 06:15:23;;;;;;;28.62;17.85;;;;;;;;;;143728;611;46020;-68
2022/03/17 06:17:56;;;;;;;29.75;17.60;;;;;;;;;;143726;594;46010;-66
2022/03/17 06:20:26;;;;;;;26.42;16.65;;;;;;;;;;143729;593;46021;-66
2022/03/17 06:22:56;;;;;;;34.28;18.40;;;;;;;;;;143725;647;46010;-67
2022/03/17 06:25:25;;;;;;;27.92;15.82;;;;;;;;;;143727;565;46020;-69
2022/03/17 06:27:52;;;;;;;28.35;17.25;;;;;;;;;;143729;638;46020;-67
2022/03/17 06:30:24;;;;;;;24.83;14.93;;;;;;;;;;143729;637;46020;-67
2022/03/17 06:32:52;;;;;;;32.63;19.15;;;;;;;;;;143728;593;46021;-67
2022/03/17 06:35:21;;;;;;;25.67;17.37;;;;;;;;;;143724;600;46021;-66
2022/03/17 06:37:51;;;;;;;35.95;21.20;;;;;;;;;;143727;619;46010;-66
2022/03/17 06:40:18;;;;;;;59.40;28.05;;;;;;;;;;143728;606;46020;-68
2022/03/17 06:42:46;;;;;;;40.80;22.23;;;;;;;;;;143727;564;46021;-68
2022/03/17 06:45:14;;;;;;;46.50;25.62;;;;;;;;;;143725;625;46917;-68
2022/03/17 06:47:42;;;;;;;46.97;23.98;;;;;;;;;;143720;608;46010;-67
2022/03/17 06:50:10;;;;;;;30.88;19.35;;;;;;;;;;143727;569;46021;-66
2022/03/17 06:52:38;;;;;;;38.47;21.95;;;;;;;;;;143726;572;46020;-65
2022/03/17 06:55:06;;;;;;;31.33;17.75;;;;;;;;;;143725;578;46917;-67
2022/03/17 06:57:34;;;;;;;43.35;22.48;;;;;;;;;;143727;564;46021;-67
2022/03/17 07:00:05;;;;;;;33.40;18.60;;;;;;;;;;143730;582;45020;-67
2022/03/17 07:02:33;;;;;;;34.20;17.67;;;;;;;;;;143729;574;45913;-69
2022/03/17 07:05:01;;;;;;;37.53;20.65;;;;;;;;;;143726;623;46917;-67
2022/03/17 07:07:29;;;;;;;32.78;18.33;;;;;;;;;;143726;576;46020;-67
2022/03/17 07:09:56;;;;;;;28.58;17.58;;;;;;;;;;143728;677;46020;-67
2022/03/17 07:12:23;;;;;;;25.98;17.37;;;;;;;;;;143725;620;46023;-67
2022/03/17 07:14:51;;;;;;;38.65;23.10;;;;;;;;;;143723;575;46020;-69
2022/03/17 07:17:22;;;;;;;42.38;26.48;;;;;;;;;;143727;565;46020;-67
2022/03/17 07:22:30;;;;;;;46.10;28.58;;;;;;;;;;143729;569;46010;-68
2022/03/17 07:25:04;;;;;;;25.48;16.08;;;;;;;;;;143728;704;45919;-68
2022/03/17 07:27:50;;;;;;;23.80;15.60;;;;;;;;;;143729;604;46020;-68
2022/03/17 07:30:23;;;;;;;29.45;16.70;;;;;;;;;;143730;629;45020;-68
2022/03/17 07:32:55;;;;;;;25.20;15.43;;;;;;;;;;143727;577;46010;-68
2022/03/17 07:35:28;;;;;;;31.10;18.37;;;;;;;;;;143728;612;46010;-68
2022/03/17 07:37:58;;;;;;;27.02;18.05;;;;;;;;;;143726;617;47020;-67
2022/03/17 07:40:40;;;;;;;30.05;19.15;;;;;;;;;;143731;569;45021;-65
2022/03/17 07:43:09;;;;;;;35.13;19.50;;;;;;;;;;143725;611;47012;-66
2022/03/17 07:45:39;;;;;;;41.80;20.08;;;;;;;;;;143727;618;46025;-68
2022/03/17 07:48:07;;;;;;;33.00;20.17;;;;;;;;;;143728;581;45021;-66
2022/03/17 07:50:34;;;;;;;27.45;18.92;;;;;;;;;;143730;569;46012;-68
2022/03/17 07:53:02;;;;;;;28.98;18.98;;;;;;;;;;143725;585;47020;-68
2022/03/17 07:55:29;;;;;;;27.02;18.95;;;;;;;;;;143728;595;46010;-66
2022/03/17 07:57:56;;;;;;;29.63;18.23;;;;;;;;;;143727;569;47020;-68
2022/03/17 08:00:23;;;;;;;35.80;19.45;;;;;;;;;;143728;580;46020;-66
2022/03/17 08:02:51;;;;;;;27.80;17.87;;;;;;;;;;143723;579;47022;-66
2022/03/17 08:05:18;;;;;;;26.17;17.02;;;;;;;;;;143721;569;46919;-65
2022/03/17 08:07:46;;;;;;;37.80;20.35;;;;;;;;;;143729;582;45020;-66
2022/03/17 08:10:15;;;;;;;27.60;17.60;;;;;;;;;;143728;580;46021;-68
2022/03/17 08:12:43;;;;;;;32.63;18.70;;;;;;;;;;143726;583;47020;-67
2022/03/17 08:15:10;;;;;;;30.58;20.60;;;;;;;;;;143728;576;46020;-66
2022/03/17 08:17:38;;;;;;;37.70;21.00;;;;;;;;;;143726;595;46021;-66
2022/03/17 08:20:06;;;;;;;32.78;20.42;;;;;;;;;;143727;623;46012;-64
2022/03/17 08:22:34;;;;;;;32.72;22.77;;;;;;;;;;143724;667;47022;-66
2022/03/17 08:25:01;;;;;;;36.38;20.70;;;;;;;;;;143725;803;47010;-66
2022/03/17 08:27:29;;;;;;;29.08;19.17;;;;;;;;;;143726;723;45021;-66
2022/03/17 08:29:57;;;;;;;28.70;20.17;;;;;;;;;;143730;643;46010;-65
2022/03/17 08:32:25;;;;;;;28.48;18.33;;;;;;;;;;143729;587;45022;-66
2022/03/17 08:34:52;;;;;;;28.52;19.25;;;;;;;;;;143724;589;47010;-65
2022/03/17 08:37:19;;;;;;;31.95;20.33;;;;;;;;;;143726;591;46020;-65
2022/03/17 08:39:46;;;;;;;27.65;20.67;;;;;;;;;;143730;701;46013;-66
2022/03/17 08:42:13;;;;;;;27.77;17.87;;;;;;;;;;143731;593;47023;-64
2022/03/17 08:44:40;;;;;;;26.33;16.35;;;;;;;;;;143725;808;47010;-65
2022/03/17 08:49:51;;;;;;;24.48;18.42;;;;;;;;;;143728;629;47010;-65
2022/03/17 08:52:19;;;;;;;24.50;18.62;;;;;;;;;;143718;593;47020;-66
2022/03/17 08:54:46;;;;;;;27.83;19.00;;;;;;;;;;143724;615;47010;-65
2022/03/17 08:57:14;;;;;;;25.62;18.17;;;;;;;;;;143725;610;45021;-65
2022/03/17 08:59:40;;;;;;;25.27;17.92;;;;;;;;;;143724;573;47020;-66
2022/03/17 09:02:12;;;;;;;29.20;17.50;;;;;;;;;;143726;592;47046;-65
2022/03/17 09:04:39;;;;;;;20.70;14.85;;;;;;;;;;143727;616;46010;-64
2022/03/17 09:07:07;;;;;;;21.80;16.05;;;;;;;;;;143727;586;45909;-65
2022/03/17 09:09:35;;;;;;;24.10;15.95;;;;;;;;;;143729;614;46013;-65
2022/03/17 09:12:05;;;;;;;21.90;16.70;;;;;;;;;;143732;573;47020;-64
2022/03/17 09:14:33;;;;;;;27.80;15.23;;;;;;;;;;143739;590;47010;-65
2022/03/17 09:17:01;;;;;;;16.12;12.48;;;;;;;;;;143736;588;45021;-65
2022/03/17 09:19:28;;;;;;;18.10;13.02;;;;;;;;;;143745;592;45021;-64
2022/03/17 09:21:56;;;;;;;17.55;12.93;;;;;;;;;;143741;564;47020;-64
2022/03/17 09:24:23;;;;;;;20.02;13.05;;;;;;;;;;143739;621;47011;-64
2022/03/17 09:26:50;;;;;;;19.70;13.15;;;;;;;;;;143740;581;45021;-64
2022/03/17 09:29:17;;;;;;;19.45;12.18;;;;;;;;;;143744;603;45020;-64
2022/03/17 09:31:44;;;;;;;19.60;13.60;;;;;;;;;;143741;627;47044;-66
2022/03/17 09:34:12;;;;;;;22.87;15.43;;;;;;;;;;143739;572;47010;-65
2022/03/17 09:36:39;;;;;;;28.90;14.00;;;;;;;;;;143740;607;45020;-65
2022/03/17 09:41:50;;;;;;;;;;;;;;;;;;143737;958;47044;-65
2022/03/17 09:44:17;;;;;;;20.92;13.90;;;;;;;;;;143745;576;46010;-65
2022/03/17 09:46:45;;;;;;;20.88;13.70;;;;;;;;;;143742;628;45021;-64
2022/03/17 09:49:12;;;;;;;19.12;12.88;;;;;;;;;;143741;564;46012;-64
2022/03/17 09:51:42;;;;;;;21.42;13.75;;;;;;;;;;143738;585;47022;-64
2022/03/17 09:54:10;;;;;;;17.10;11.73;;;;;;;;;;143740;603;46010;-66
2022/03/17 09:56:37;;;;;;;20.23;13.15;;;;;;;;;;143740;625;45021;-64
2022/03/17 09:59:06;;;;;;;20.35;12.95;;;;;;;;;;143744;598;45020;-64
2022/03/17 10:01:35;;;;;;;19.42;13.13;;;;;;;;;;143741;673;47020;-65
2022/03/17 10:04:03;;;;;;;16.98;12.27;;;;;;;;;;143740;569;46029;-65
2022/03/17 10:06:31;;;;;;;17.40;12.88;;;;;;;;;;143736;619;45020;-64
2022/03/17 10:08:58;;;;;;;17.42;11.85;;;;;;;;;;143744;588;45021;-64
2022/03/17 10:11:31;;;;;;;18.17;11.95;;;;;;;;;;143742;690;47020;-63
2022/03/17 10:13:59;;;;;;;21.85;11.25;;;;;;;;;;143739;599;46049;-63
2022/03/17 10:16:27;;;;;;;15.85;11.20;;;;;;;;;;143742;570;45019;-64
2022/03/17 10:19:08;;;;;;;20.37;12.93;;;;;;;;;;143745;567;45023;-65
2022/03/17 10:21:37;;;;;;;17.08;11.32;;;;;;;;;;143738;579;48018;-64
2022/03/17 10:24:08;;;;;;;15.35;11.82;;;;;;;;;;143741;597;46025;-65
2022/03/17 10:26:46;;;;;;;18.77;11.85;;;;;;;;;;143741;600;45019;-65
2022/03/17 10:29:22;;;;;;;16.02;11.18;;;;;;;;;;143744;577;45022;-64
2022/03/17 10:32:14;;;;;;;17.15;11.18;;;;;;;;;;143733;611;47020;-63
2022/03/17 10:35:08;;;;;;;19.95;14.02;;;;;;;;;;143743;609;45922;-62
2022/03/17 10:37:38;;;;;;;18.60;12.25;;;;;;;;;;143739;585;45018;-65
2022/03/17 10:40:11;;;;;;;21.45;10.80;;;;;;;;;;143744;577;45023;-65
2022/03/17 10:42:38;;;;;;;16.37;10.60;;;;;;;;;;143740;632;47018;-63
2022/03/17 10:45:07;;;;;;;16.40;11.60;;;;;;;;;;143742;571;46010;-65
2022/03/17 10:47:40;;;;;;;17.92;11.20;;;;;;;;;;143743;628;45019;-65
2022/03/17 10:50:11;;;;;;;16.30;11.45;;;;;;;;;;143745;604;46022;-63
2022/03/17 10:53:03;;;;;;;16.58;10.07;;;;;;;;;;143741;583;47018;-64
2022/03/17 10:55:35;;;;;;;16.05;11.32;;;;;;;;;;143740;572;47010;-64
2022/03/17 10:58:20;;;;;;;13.85;10.13;;;;;;;;;;143736;597;46018;-63
2022/03/17 11:00:52;;;;;;;14.00;10.25;;;;;;;;;;143746;597;45023;-64
2022/03/17 11:03:22;;;;;;;18.02;11.15;;;;;;;;;;143741;605;47018;-63
2022/03/17 11:05:50;;;;;;;20.15;14.55;;;;;;;;;;143735;617;47010;-64
2022/03/17 11:08:19;;;;;;;31.02;19.85;;;;;;;;;;143745;585;45019;-65
2022/03/17 11:10:46;;;;;;;16.77;12.90;;;;;;;;;;143745;670;46023;-64
2022/03/17 11:13:13;;;;;;;14.52;10.00;;;;;;;;;;143740;612;47018;-65
2022/03/17 11:15:48;;;;;;;20.58;14.10;;;;;;;;;;143741;589;46010;-64
2022/03/17 11:18:26;;;;;;;19.58;10.43;;;;;;;;;;143741;592;46016;-65
2022/03/17 11:21:22;;;;;;;24.40;15.93;;;;;;;;;;143745;580;45022;-66
2022/03/17 11:23:57;;;;;;;16.27;10.77;;;;;;;;;;143734;574;47047;-65
2022/03/17 11:26:31;;;;;;;19.62;11.45;;;;;;;;;;143740;614;47010;-64
2022/03/17 11:29:13;;;;;;;15.27;11.10;;;;;;;;;;143743;600;45018;-65
2022/03/17 11:32:01;;;;;;;15.52;11.60;;;;;;;;;;143744;588;46010;-64
2022/03/17 11:34:47;;;;;;;17.62;11.43;;;;;;;;;;143743;575;47018;-64
2022/03/17 11:37:33;;;;;;;21.00;13.18;;;;;;;;;;143740;603;47010;-64
2022/03/17 11:40:25;;;;;;;15.55;11.80;;;;;;;;;;143738;602;46018;-65
2022/03/17 11:43:12;;;;;;;19.52;13.55;;;;;;;;;;143745;594;46022;-65
2022/03/17 11:45:41;;;;;;;16.62;11.38;;;;;;;;;;143742;569;47019;-66
2022/03/17 11:48:10;;;;;;;14.77;10.90;;;;;;;;;;143741;576;49010;-65
2022/03/17 11:50:41;;;;;;;18.08;10.88;;;;;;;;;;143735;577;47018;-64
2022/03/17 11:53:34;;;;;;;20.30;14.07;;;;;;;;;;143742;564;46022;-62
2022/03/17 11:56:01;;;;;;;27.35;13.82;;;;;;;;;;143740;610;47018;-62
2022/03/17 11:58:44;;;;;;;15.32;11.75;;;;;;;;;;143741;566;46023;-63
2022/03/17 12:01:13;;;;;;;13.93;10.40;;;;;;;;;;143743;566;45019;-62
2022/03/17 12:03:48;;;;;;;21.20;15.73;;;;;;;;;;143743;633;47010;-63
2022/03/17 12:06:39;;;;;;;20.17;12.82;;;;;;;;;;143741;609;47018;-63
2022/03/17 12:09:13;;;;;;;15.75;12.52;;;;;;;;;;143741;580;47010;-62
2022/03/17 12:11:43;;;;;;;17.25;11.68;;;;;;;;;;143743;640;45018;-62
2022/03/17 12:14:34;;;;;;;20.12;13.52;;;;;;;;;;143744;621;45022;-61
2022/03/17 12:17:17;;;;;;;22.35;14.35;;;;;;;;;;143734;606;47018;-62
2022/03/17 12:19:52;;;;;;;23.90;14.80;;;;;;;;;;143738;592;46022;-62
2022/03/17 12:22:39;;;;;;;16.12;11.32;;;;;;;;;;143741;706;45019;-62
2022/03/17 12:25:23;;;;;;;18.45;12.70;;;;;;;;;;143746;602;46023;-62
2022/03/17 12:27:52;;;;;;;16.20;11.55;;;;;;;;;;143741;566;47018;-63
2022/03/17 12:30:21;;;;;;;20.15;13.88;;;;;;;;;;143741;597;46029;-63
2022/03/17 12:32:55;;;;;;;19.08;13.27;;;;;;;;;;143740;712;45018;-62
2022/03/17 12:35:24;;;;;;;20.95;12.70;;;;;;;;;;143744;585;45022;-63
2022/03/17 12:38:02;;;;;;;22.37;13.90;;;;;;;;;;143744;606;47019;-63
2022/03/17 12:40:35;;;;;;;15.23;12.02;;;;;;;;;;143738;670;46010;-62
2022/03/17 12:43:15;;;;;;;18.02;13.23;;;;;;;;;;143736;577;45018;-63
2022/03/17 12:45:44;;;;;;;17.42;12.73;;;;;;;;;;143744;564;45023;-62
2022/03/17 12:48:11;;;;;;;21.35;12.52;;;;;;;;;;143744;634;47018;-62
2022/03/17 12:50:38;;;;;;;22.33;13.50;;;;;;;;;;143742;575;46024;-61
2022/03/17 12:53:05;;;;;;;15.45;11.80;;;;;;;;;;143741;573;45019;-62
2022/03/17 12:55:33;;;;;;;24.10;11.80;;;;;;;;;;143745;668;46022;-62
2022/03/17 12:58:02;;;;;;;15.40;10.25;;;;;;;;;;143742;625;47018;-62
2022/03/17 13:00:29;;;;;;;15.23;9.85;;;;;;;;;;143739;636;47010;-62
2022/03/17 13:02:57;;;;;;;14.13;8.65;;;;;;;;;;143743;613;45019;-62
2022/03/17 13:08:13;;;;;;;11.85;7.90;;;;;;;;;;143738;566;45020;-62
2022/03/17 13:16:11;;;;;;;15.82;8.20;;;;;;;;;;143745;593;46023;-62
2022/03/17 13:18:51;;;;;;;19.08;11.07;;;;;;;;;;143741;616;47018;-62
2022/03/17 13:21:20;;;;;;;16.23;9.30;;;;;;;;;;143742;586;46011;-62
2022/03/17 13:23:49;;;;;;;12.18;7.85;;;;;;;;;;143743;642;45019;-62
2022/03/17 13:26:27;;;;;;;15.50;9.70;;;;;;;;;;143745;591;45022;-62
2022/03/17 13:29:05;;;;;;;15.70;8.88;;;;;;;;;;143741;580;47019;-62
2022/03/17 13:31:52;;;;;;;13.95;9.50;;;;;;;;;;143738;589;47011;-62
2022/03/17 13:34:39;;;;;;;12.25;7.62;;;;;;;;;;143734;583;46012;-62
2022/03/17 13:37:18;;;;;;;14.00;9.02;;;;;;;;;;143745;574;45023;-62
2022/03/17 13:39:45;;;;;;;14.50;8.57;;;;;;;;;;143740;626;47021;-62
2022/03/17 13:42:14;;;;;;;13.68;8.57;;;;;;;;;;143740;589;46010;-61
2022/03/17 13:44:53;;;;;;;11.90;8.88;;;;;;;;;;143740;586;46018;-62
2022/03/17 13:47:29;;;;;;;15.65;9.15;;;;;;;;;;143746;628;45023;-61
2022/03/17 13:50:09;;;;;;;13.27;9.10;;;;;;;;;;143739;582;47018;-61
2022/03/17 13:52:38;;;;;;;14.20;9.02;;;;;;;;;;143738;599;49011;-61
2022/03/17 13:55:16;;;;;;;14.07;9.90;;;;;;;;;;143745;613;45018;-62
2022/03/17 13:57:43;;;;;;;14.10;9.25;;;;;;;;;;143744;614;45022;-61
2022/03/17 14:00:23;;;;;;;18.37;8.95;;;;;;;;;;143736;599;47019;-61
2022/03/17 14:03:14;;;;;;;11.27;8.93;;;;;;;;;;143741;571;46010;-62
2022/03/17 14:05:59;;;;;;;12.85;8.32;;;;;;;;;;143742;581;45018;-62
2022/03/17 14:08:26;;;;;;;;;;;;;;;;;;143750;979;45024;-61
2022/03/17 14:10:53;;;;;;;16.27;8.20;;;;;;;;;;143747;587;47018;-61
2022/03/17 14:13:20;;;;;;;17.33;8.45;;;;;;;;;;143742;578;46010;-62
2022/03/17 14:15:49;;;;;;;12.20;8.25;;;;;;;;;;143740;662;45019;-62
2022/03/17 14:18:23;;;;;;;13.35;9.00;;;;;;;;;;143744;642;45022;-62
2022/03/17 14:20:50;;;;;;;16.48;9.10;;;;;;;;;;143740;624;47018;-62
2022/03/17 14:26:01;;;;;;;11.80;8.30;;;;;;;;;;143737;640;46018;-62
2022/03/17 14:28:28;;;;;;;12.73;7.97;;;;;;;;;;143746;591;45022;-62
2022/03/17 14:30:55;;;;;;;12.02;7.37;;;;;;;;;;143742;570;47018;-61
2022/03/17 14:33:22;;;;;;;17.95;8.10;;;;;;;;;;143741;582;47010;-62
2022/03/17 14:35:52;;;;;;;12.43;8.15;;;;;;;;;;143743;692;45018;-62
2022/03/17 14:38:20;;;;;;;13.18;8.15;;;;;;;;;;143746;623;45023;-62
2022/03/17 14:40:48;;;;;;;14.25;8.15;;;;;;;;;;143740;606;47018;-61
2022/03/17 14:43:15;;;;;;;10.70;7.62;;;;;;;;;;143742;587;46010;-62
2022/03/17 14:45:42;;;;;;;11.48;8.38;;;;;;;;;;143741;569;45019;-62
2022/03/17 14:48:09;;;;;;;11.23;7.93;;;;;;;;;;143746;614;46022;-61
2022/03/17 14:50:36;;;;;;;10.68;7.45;;;;;;;;;;143734;585;47018;-62
2022/03/17 14:53:04;;;;;;;13.00;7.78;;;;;;;;;;143742;565;46029;-62
2022/03/17 14:55:31;;;;;;;13.85;8.85;;;;;;;;;;143741;594;45018;-62
2022/03/17 14:57:59;;;;;;;12.25;7.87;;;;;;;;;;143745;564;46022;-62